Time;durP1;ratioP1;P1;durP2;ratioP2;P2;SDS_P1;SDS_P2;PMS_P1;PMS_P2;Temp;Humidity;BMP_temperature;BMP_pressure;BME280_temperature;BME280_humidity;BME280_pressure;Samples;Min_cycle;Max_cycle;Signal;HPM_P1;HPM_P2
2023/12/04 00:01:11;;;;;;;57.20;41.37;;;0.50;99.90;;;;;;5067481;28;20051;-76
2023/12/04 00:03:37;;;;;;;55.13;39.20;;;0.50;99.90;;;;;;5081022;28;20044;-76
2023/12/04 00:06:03;;;;;;;57.63;41.27;;;0.40;99.90;;;;;;5086174;28;20055;-76
2023/12/04 00:08:29;;;;;;;64.03;43.03;;;0.50;99.90;;;;;;5086172;28;20532;-76
2023/12/04 00:10:55;;;;;;;58.27;40.80;;;0.50;99.90;;;;;;5060786;28;20044;-76
2023/12/04 00:13:24;;;;;;;69.10;45.77;;;0.50;99.90;;;;;;5085618;28;20082;-75
2023/12/04 00:15:49;;;;;;;60.67;42.20;;;0.50;99.90;;;;;;5063658;28;20135;-75
2023/12/04 00:18:15;;;;;;;59.83;41.87;;;0.60;99.90;;;;;;5091605;28;20122;-75
2023/12/04 00:20:41;;;;;;;62.67;43.20;;;0.40;99.90;;;;;;5074516;28;20145;-75
2023/12/04 00:23:06;;;;;;;65.83;45.57;;;0.50;99.90;;;;;;5081455;28;20104;-75
2023/12/04 00:25:32;;;;;;;65.13;44.33;;;0.50;99.90;;;;;;5064865;28;20093;-75
2023/12/04 00:27:58;;;;;;;60.07;42.83;;;0.50;99.90;;;;;;5071100;28;20082;-75
2023/12/04 00:30:24;;;;;;;64.77;46.40;;;0.50;99.90;;;;;;5065135;28;20131;-75
2023/12/04 00:32:49;;;;;;;58.27;42.70;;;0.50;99.90;;;;;;5070614;28;20046;-75
2023/12/04 00:35:15;;;;;;;61.03;44.33;;;0.50;99.90;;;;;;5096314;28;20059;-75
2023/12/04 00:37:41;;;;;;;73.33;46.97;;;0.50;99.90;;;;;;5090735;28;20429;-76
2023/12/04 00:40:07;;;;;;;64.03;46.33;;;0.50;99.90;;;;;;5081254;28;20159;-75
2023/12/04 00:42:33;;;;;;;68.77;47.17;;;0.50;99.90;;;;;;5089072;28;20093;-75
2023/12/04 00:44:59;;;;;;;64.63;46.53;;;0.50;99.90;;;;;;5085424;28;20044;-75
2023/12/04 00:47:25;;;;;;;63.37;47.07;;;0.50;99.90;;;;;;5080003;28;20035;-76
2023/12/04 00:49:53;;;;;;;64.93;46.77;;;0.50;99.90;;;;;;5067006;28;20773;-74
2023/12/04 00:52:19;;;;;;;65.33;46.73;;;0.50;99.90;;;;;;5063446;28;20032;-75
2023/12/04 00:54:44;;;;;;;61.17;45.63;;;0.50;99.90;;;;;;5085349;28;20045;-76
2023/12/04 00:57:10;;;;;;;62.60;46.43;;;0.50;99.90;;;;;;5075938;28;20048;-76
2023/12/04 00:59:36;;;;;;;64.27;46.13;;;0.50;99.90;;;;;;5086519;28;20047;-76
2023/12/04 01:02:02;;;;;;;65.83;46.10;;;0.50;99.90;;;;;;5077008;28;20043;-75
2023/12/04 01:04:28;;;;;;;65.73;46.77;;;0.50;99.90;;;;;;5080711;28;20048;-76
2023/12/04 01:06:53;;;;;;;62.07;45.10;;;0.60;99.90;;;;;;5067611;28;20048;-77
2023/12/04 01:09:24;;;;;;;66.33;47.57;;;0.50;99.90;;;;;;5081040;28;20115;-76
2023/12/04 01:11:52;;;;;;;72.15;48.05;;;0.50;99.90;;;;;;5065852;28;20044;-76
2023/12/04 01:14:17;;;;;;;64.83;47.40;;;0.50;99.90;;;;;;5079714;28;20035;-77
2023/12/04 01:16:43;;;;;;;64.90;46.33;;;0.50;99.90;;;;;;5085537;28;20059;-75
2023/12/04 01:19:09;;;;;;;62.43;46.23;;;0.50;99.90;;;;;;5068823;28;20054;-75
2023/12/04 01:21:35;;;;;;;65.17;45.70;;;0.60;99.90;;;;;;5082092;28;20114;-75
2023/12/04 01:24:01;;;;;;;64.43;45.50;;;0.50;99.90;;;;;;5081763;28;20061;-75
2023/12/04 01:26:27;;;;;;;64.27;46.40;;;0.50;99.90;;;;;;5082172;28;20031;-75
2023/12/04 01:28:53;;;;;;;68.73;45.47;;;0.50;99.90;;;;;;5080794;28;20048;-74
2023/12/04 01:31:18;;;;;;;61.90;44.90;;;0.50;99.90;;;;;;5079572;28;20051;-75
2023/12/04 01:33:44;;;;;;;66.57;45.17;;;0.50;99.90;;;;;;5083572;28;20054;-74
2023/12/04 01:36:10;;;;;;;62.90;45.57;;;0.50;99.90;;;;;;5080158;28;20097;-74
2023/12/04 01:38:37;;;;;;;67.37;44.23;;;0.50;99.90;;;;;;5083342;28;20538;-74
2023/12/04 01:41:03;;;;;;;64.50;44.57;;;0.60;99.90;;;;;;5084442;28;20122;-75
2023/12/04 01:43:29;;;;;;;62.97;43.53;;;0.50;99.90;;;;;;5057547;28;20504;-74
2023/12/04 01:45:56;;;;;;;64.97;43.90;;;0.60;99.90;;;;;;5069852;28;20049;-75
2023/12/04 01:48:22;;;;;;;63.13;43.77;;;0.50;99.90;;;;;;5068154;28;20082;-74
2023/12/04 01:50:48;;;;;;;64.10;44.13;;;0.60;99.90;;;;;;5052917;28;20518;-74
2023/12/04 01:53:15;;;;;;;62.67;42.67;;;0.50;99.90;;;;;;5062177;28;20044;-74
2023/12/04 01:55:41;;;;;;;60.10;42.40;;;0.60;99.90;;;;;;5081893;28;20487;-74
2023/12/04 01:58:07;;;;;;;64.23;43.77;;;0.50;99.90;;;;;;5087672;28;20228;-74
2023/12/04 02:00:33;;;;;;;60.60;42.90;;;0.50;99.90;;;;;;5079187;28;20048;-75
2023/12/04 02:02:59;;;;;;;62.45;42.88;;;0.50;99.90;;;;;;5065569;28;20173;-75
2023/12/04 02:05:29;;;;;;;58.70;42.00;;;0.60;99.90;;;;;;5075076;28;20123;-75
2023/12/04 02:07:55;;;;;;;60.65;42.67;;;0.60;99.90;;;;;;5062563;28;20186;-76
2023/12/04 02:10:22;;;;;;;60.20;42.20;;;0.60;99.90;;;;;;5066130;28;20402;-76
2023/12/04 02:12:52;;;;;;;67.70;44.20;;;0.60;99.90;;;;;;5070051;28;20492;-75
2023/12/04 02:15:18;;;;;;;63.33;44.53;;;0.60;99.90;;;;;;5076742;28;20040;-76
2023/12/04 02:17:44;;;;;;;58.43;41.80;;;0.60;99.90;;;;;;5070935;28;20046;-75
2023/12/04 02:20:13;;;;;;;56.00;40.97;;;0.60;99.90;;;;;;5082472;28;20032;-76
2023/12/04 02:22:38;;;;;;;57.83;40.93;;;0.60;99.90;;;;;;5065329;28;20052;-76
2023/12/04 02:25:06;;;;;;;60.90;41.50;;;0.60;99.90;;;;;;5079993;28;20097;-76
2023/12/04 02:27:40;;;;;;;56.77;41.13;;;0.50;99.90;;;;;;5076012;28;20039;-76
2023/12/04 02:30:09;;;;;;;60.63;42.70;;;0.60;99.90;;;;;;5078128;28;20371;-76
2023/12/04 02:32:40;;;;;;;56.30;41.07;;;0.60;99.90;;;;;;5076651;28;20079;-76
2023/12/04 02:35:08;;;;;;;58.97;41.90;;;0.70;99.90;;;;;;5082578;28;20055;-75
2023/12/04 02:37:34;;;;;;;60.03;41.93;;;0.60;99.90;;;;;;5077920;28;20446;-76
2023/12/04 02:40:00;;;;;;;52.37;39.13;;;0.60;99.90;;;;;;5083579;28;20064;-76
2023/12/04 02:42:26;;;;;;;58.90;40.90;;;0.60;99.90;;;;;;5073827;28;20036;-76
2023/12/04 02:44:52;;;;;;;58.23;41.67;;;0.60;99.90;;;;;;5087191;28;20217;-76
2023/12/04 02:47:18;;;;;;;56.77;40.27;;;0.60;99.90;;;;;;5064341;28;20047;-76
2023/12/04 02:49:44;;;;;;;52.57;37.83;;;0.60;99.90;;;;;;5076637;28;20065;-75
2023/12/04 02:52:10;;;;;;;59.87;41.37;;;0.60;99.90;;;;;;5085304;28;20133;-76
2023/12/04 02:54:36;;;;;;;54.37;38.33;;;0.60;99.90;;;;;;5081250;28;20050;-75
2023/12/04 02:57:02;;;;;;;51.83;38.13;;;0.60;99.90;;;;;;5087230;28;20074;-77
2023/12/04 02:59:28;;;;;;;53.57;38.37;;;0.60;99.90;;;;;;5065529;28;20063;-75
2023/12/04 03:01:53;;;;;;;54.37;39.97;;;0.60;99.90;;;;;;5058270;28;20501;-75
2023/12/04 03:04:20;;;;;;;53.47;39.87;;;0.60;99.90;;;;;;5063435;28;20047;-75
2023/12/04 03:06:46;;;;;;;49.47;37.10;;;0.60;99.90;;;;;;5068708;28;20127;-76
2023/12/04 03:09:11;;;;;;;53.75;38.58;;;0.60;99.90;;;;;;5070395;28;20144;-76
2023/12/04 03:11:41;;;;;;;51.57;36.93;;;0.60;99.90;;;;;;5055040;28;20051;-74
2023/12/04 03:14:07;;;;;;;50.30;36.43;;;0.60;99.90;;;;;;5066531;28;20085;-76
2023/12/04 03:16:33;;;;;;;52.33;38.67;;;0.70;99.90;;;;;;5077808;28;20043;-74
2023/12/04 03:18:59;;;;;;;46.83;35.33;;;0.60;99.90;;;;;;5074158;28;20125;-74
2023/12/04 03:21:25;;;;;;;52.20;38.87;;;0.70;99.90;;;;;;5081294;28;20129;-74
2023/12/04 03:23:53;;;;;;;48.87;37.53;;;0.70;99.90;;;;;;5054947;28;20098;-74
2023/12/04 03:26:19;;;;;;;51.40;37.73;;;0.70;99.90;;;;;;5076883;28;20028;-74
2023/12/04 03:28:45;;;;;;;46.67;37.13;;;0.70;99.90;;;;;;5062955;28;20383;-74
2023/12/04 03:31:11;;;;;;;49.20;36.43;;;0.70;99.90;;;;;;5075013;28;20443;-74
2023/12/04 03:33:37;;;;;;;51.47;37.90;;;0.70;99.90;;;;;;5075384;28;20131;-75
2023/12/04 03:36:03;;;;;;;50.80;36.93;;;0.70;99.90;;;;;;5081120;28;20462;-75
2023/12/04 03:38:29;;;;;;;46.23;36.30;;;0.70;99.90;;;;;;5072445;28;20037;-75
2023/12/04 03:40:54;;;;;;;53.87;38.13;;;0.70;99.90;;;;;;5057059;28;20509;-75
2023/12/04 03:43:20;;;;;;;49.77;37.47;;;0.70;99.90;;;;;;5057272;28;20135;-77
2023/12/04 03:45:46;;;;;;;50.13;36.47;;;0.70;99.90;;;;;;5058319;28;20518;-76
2023/12/04 03:48:12;;;;;;;46.77;35.07;;;0.70;99.90;;;;;;5065900;28;20036;-77
2023/12/04 03:50:37;;;;;;;43.80;34.00;;;0.70;99.90;;;;;;5075233;28;20047;-75
2023/12/04 03:53:03;;;;;;;41.70;33.43;;;0.70;99.90;;;;;;5071247;28;20461;-76
2023/12/04 03:55:29;;;;;;;48.33;34.90;;;0.80;99.90;;;;;;5063625;28;20474;-76
2023/12/04 03:57:57;;;;;;;41.87;33.17;;;0.70;99.90;;;;;;5056660;28;20047;-76
2023/12/04 04:00:22;;;;;;;45.47;33.90;;;0.80;99.90;;;;;;5071392;28;20048;-76
2023/12/04 04:02:49;;;;;;;43.13;33.37;;;0.80;99.90;;;;;;5070613;28;20044;-76
2023/12/04 04:05:15;;;;;;;45.20;34.27;;;0.80;99.90;;;;;;5077095;28;20113;-76
2023/12/04 04:07:41;;;;;;;44.60;33.50;;;0.80;99.90;;;;;;5083700;28;20088;-76
2023/12/04 04:10:07;;;;;;;43.83;32.70;;;0.80;99.90;;;;;;5064875;28;20071;-76
2023/12/04 04:12:33;;;;;;;43.33;32.77;;;0.80;99.90;;;;;;5079148;28;20036;-76
2023/12/04 04:14:59;;;;;;;45.37;33.40;;;0.70;99.90;;;;;;5071039;28;20499;-76
2023/12/04 04:17:27;;;;;;;45.17;31.97;;;0.70;99.90;;;;;;5077664;28;20093;-76
2023/12/04 04:19:53;;;;;;;47.70;33.07;;;0.70;99.90;;;;;;5070215;28;20048;-76
2023/12/04 04:22:22;;;;;;;47.00;34.47;;;0.70;99.90;;;;;;5065115;28;20513;-76
2023/12/04 04:24:49;;;;;;;45.00;33.07;;;0.70;99.90;;;;;;5071423;28;20076;-76
2023/12/04 04:27:15;;;;;;;44.30;33.07;;;0.70;99.90;;;;;;5063655;28;20470;-75
2023/12/04 04:29:41;;;;;;;43.77;32.23;;;0.70;99.90;;;;;;5070747;28;20095;-76
2023/12/04 04:32:07;;;;;;;44.50;32.87;;;0.70;99.90;;;;;;5081669;28;20040;-76
2023/12/04 04:34:32;;;;;;;46.63;32.53;;;0.80;99.90;;;;;;5067475;28;20044;-76
2023/12/04 04:36:58;;;;;;;50.07;35.53;;;0.70;99.90;;;;;;5070851;28;20341;-76
2023/12/04 04:39:24;;;;;;;47.10;33.53;;;0.60;99.90;;;;;;5086174;28;20363;-76
2023/12/04 04:41:50;;;;;;;45.43;32.67;;;0.60;99.90;;;;;;5055473;28;20135;-76
2023/12/04 04:44:16;;;;;;;46.03;32.58;;;0.70;99.90;;;;;;5081557;28;20094;-75
2023/12/04 04:46:41;;;;;;;48.00;34.07;;;0.70;99.90;;;;;;5063490;28;20091;-76
2023/12/04 04:49:07;;;;;;;45.07;32.10;;;0.70;99.90;;;;;;5081701;28;20107;-75
2023/12/04 04:51:34;;;;;;;48.53;33.27;;;0.70;99.90;;;;;;5064477;28;20055;-73
2023/12/04 04:54:03;;;;;;;43.00;32.67;;;0.70;99.90;;;;;;5054145;28;20070;-75
2023/12/04 04:56:29;;;;;;;40.77;30.47;;;0.70;99.90;;;;;;5055801;28;20036;-75
2023/12/04 04:58:56;;;;;;;45.00;33.27;;;0.70;99.90;;;;;;5061797;28;20040;-75
2023/12/04 05:01:21;;;;;;;43.27;30.90;;;0.70;99.90;;;;;;5067064;28;20071;-75
2023/12/04 05:03:47;;;;;;;42.27;31.07;;;0.70;99.90;;;;;;5054602;28;20052;-75
2023/12/04 05:06:13;;;;;;;48.33;33.77;;;0.70;99.90;;;;;;5069492;28;20033;-75
2023/12/04 05:08:39;;;;;;;37.13;30.60;;;0.70;99.90;;;;;;5067070;28;20526;-75
2023/12/04 05:11:05;;;;;;;42.63;30.98;;;0.70;99.90;;;;;;5069253;28;20040;-74
2023/12/04 05:13:31;;;;;;;42.70;31.93;;;0.70;99.90;;;;;;5067305;28;20049;-76
2023/12/04 05:15:57;;;;;;;43.40;31.97;;;0.70;99.90;;;;;;5067906;28;20442;-76
2023/12/04 05:18:22;;;;;;;40.63;30.57;;;0.70;99.90;;;;;;5079383;28;20066;-76
2023/12/04 05:20:48;;;;;;;40.03;29.13;;;0.80;99.90;;;;;;5071077;28;20513;-76
2023/12/04 05:23:14;;;;;;;44.27;32.27;;;0.70;99.90;;;;;;5073993;28;20120;-76
2023/12/04 05:25:40;;;;;;;40.07;30.17;;;0.70;99.90;;;;;;5072340;28;20098;-76
2023/12/04 05:28:06;;;;;;;41.10;30.97;;;0.70;99.90;;;;;;5058056;28;20051;-76
2023/12/04 05:30:32;;;;;;;40.92;30.83;;;0.70;99.90;;;;;;5079339;28;20043;-76
2023/12/04 05:32:57;;;;;;;40.67;31.03;;;0.70;99.90;;;;;;5082873;28;20036;-76
2023/12/04 05:35:23;;;;;;;40.93;30.17;;;0.70;99.90;;;;;;5079177;28;20362;-76
2023/12/04 05:37:49;;;;;;;41.77;31.00;;;0.70;99.90;;;;;;5067194;28;20040;-74
2023/12/04 05:40:15;;;;;;;41.83;31.20;;;0.70;99.90;;;;;;5083869;28;20936;-75
2023/12/04 05:42:41;;;;;;;38.63;29.90;;;0.70;99.90;;;;;;5079980;28;20051;-76
2023/12/04 05:45:07;;;;;;;36.73;28.90;;;0.70;99.90;;;;;;5080441;28;20040;-75
2023/12/04 05:47:34;;;;;;;42.97;31.60;;;0.70;99.90;;;;;;5067189;28;20151;-75
2023/12/04 05:50:00;;;;;;;39.97;30.33;;;0.70;99.90;;;;;;5082031;28;20044;-75
2023/12/04 05:52:26;;;;;;;37.53;28.80;;;0.70;99.90;;;;;;5089937;28;20040;-76
2023/12/04 05:54:51;;;;;;;38.13;29.37;;;0.70;99.90;;;;;;5084563;28;20044;-75
2023/12/04 05:57:17;;;;;;;37.30;29.15;;;0.80;99.90;;;;;;5062833;28;20052;-75
2023/12/04 05:59:43;;;;;;;37.10;29.47;;;0.70;99.90;;;;;;5084127;28;20135;-75
2023/12/04 06:02:09;;;;;;;35.37;28.67;;;0.70;99.90;;;;;;5087260;28;20047;-76
2023/12/04 06:04:35;;;;;;;37.37;28.67;;;0.70;99.90;;;;;;5058225;28;20047;-75
2023/12/04 06:07:00;;;;;;;36.07;28.33;;;0.80;99.90;;;;;;5067033;28;20044;-75
2023/12/04 06:09:26;;;;;;;35.93;27.47;;;0.80;99.90;;;;;;5080550;28;20040;-75
2023/12/04 06:11:52;;;;;;;36.73;27.77;;;0.80;99.90;;;;;;5078138;28;20048;-75
2023/12/04 06:14:18;;;;;;;34.60;27.63;;;0.80;99.90;;;;;;5062322;28;20036;-76
2023/12/04 06:16:43;;;;;;;36.70;27.87;;;0.70;99.90;;;;;;5081686;28;20156;-75
2023/12/04 06:19:09;;;;;;;33.97;27.37;;;0.80;99.90;;;;;;5065851;28;20406;-76
2023/12/04 06:21:35;;;;;;;37.00;28.13;;;0.80;99.90;;;;;;5080409;28;20051;-75
2023/12/04 06:24:01;;;;;;;35.33;28.13;;;0.80;99.90;;;;;;5088196;28;20040;-75
2023/12/04 06:26:27;;;;;;;36.90;28.60;;;0.80;99.90;;;;;;5080558;28;20040;-75
2023/12/04 06:28:53;;;;;;;38.00;28.13;;;0.70;99.90;;;;;;5063453;28;20601;-75
2023/12/04 06:31:19;;;;;;;34.20;27.37;;;0.70;99.90;;;;;;5091606;28;20039;-75
2023/12/04 06:33:45;;;;;;;34.07;27.67;;;0.70;99.90;;;;;;5066501;28;20286;-75
2023/12/04 06:36:12;;;;;;;34.97;27.63;;;0.70;99.90;;;;;;5078347;28;20387;-77
2023/12/04 06:38:40;;;;;;;32.30;26.30;;;0.70;99.90;;;;;;5080052;28;20067;-76
2023/12/04 06:41:07;;;;;;;33.90;26.23;;;0.70;99.90;;;;;;5084501;28;20059;-76
2023/12/04 06:43:33;;;;;;;33.77;26.60;;;0.70;99.90;;;;;;5083932;28;20166;-76
2023/12/04 06:45:59;;;;;;;33.67;26.17;;;0.70;99.90;;;;;;5075982;28;20039;-76
2023/12/04 06:48:25;;;;;;;33.23;26.93;;;0.70;99.90;;;;;;5064075;28;20032;-76
2023/12/04 06:50:51;;;;;;;32.93;26.70;;;0.60;99.90;;;;;;5061868;28;20497;-76
2023/12/04 06:53:17;;;;;;;33.80;26.57;;;0.70;99.90;;;;;;5075386;28;20036;-76
2023/12/04 06:55:44;;;;;;;31.30;24.80;;;0.60;99.90;;;;;;5082519;28;20048;-76
2023/12/04 06:58:10;;;;;;;29.63;24.90;;;0.60;99.90;;;;;;5078766;28;20055;-76
2023/12/04 07:00:35;;;;;;;33.47;26.77;;;0.60;99.90;;;;;;5065446;28;20040;-76
2023/12/04 07:03:01;;;;;;;33.73;25.90;;;0.60;99.90;;;;;;5077233;28;20531;-76
2023/12/04 07:05:27;;;;;;;31.93;25.70;;;0.60;99.90;;;;;;5066540;28;20146;-74
2023/12/04 07:07:53;;;;;;;34.10;24.93;;;0.60;99.90;;;;;;5082312;28;20047;-75
2023/12/04 07:10:18;;;;;;;31.53;25.03;;;0.60;99.90;;;;;;5081224;28;20291;-74
2023/12/04 07:12:44;;;;;;;29.43;24.77;;;0.60;99.90;;;;;;5073819;28;20044;-75
2023/12/04 07:15:11;;;;;;;30.27;24.60;;;0.60;99.90;;;;;;5081141;28;20123;-74
2023/12/04 07:17:37;;;;;;;29.77;24.77;;;0.60;99.90;;;;;;5081486;28;20040;-75
2023/12/04 07:20:06;;;;;;;32.10;25.07;;;0.70;99.90;;;;;;5081869;28;20499;-75
2023/12/04 07:22:32;;;;;;;29.47;24.50;;;0.60;99.90;;;;;;5074559;28;20047;-75
2023/12/04 07:24:58;;;;;;;28.03;24.40;;;0.60;99.90;;;;;;5077516;28;20040;-75
2023/12/04 07:27:25;;;;;;;30.17;23.67;;;0.60;99.90;;;;;;5075090;28;20043;-76
2023/12/04 07:29:53;;;;;;;28.50;23.47;;;0.80;99.90;;;;;;5082771;28;20059;-73
2023/12/04 07:32:19;;;;;;;29.63;23.13;;;0.60;99.90;;;;;;5079824;28;20430;-72
2023/12/04 07:34:45;;;;;;;29.50;23.90;;;0.60;99.90;;;;;;5071506;28;20048;-72
2023/12/04 07:37:11;;;;;;;28.90;23.97;;;0.70;99.90;;;;;;5065388;28;20064;-72
2023/12/04 07:39:37;;;;;;;27.67;23.27;;;0.70;99.90;;;;;;5086782;28;20036;-72
2023/12/04 07:42:03;;;;;;;29.27;23.67;;;0.70;99.90;;;;;;5081978;28;20526;-72
2023/12/04 07:44:30;;;;;;;28.07;23.13;;;0.70;99.90;;;;;;5082158;28;20172;-72
2023/12/04 07:46:58;;;;;;;30.40;23.80;;;0.70;99.90;;;;;;5085812;28;20044;-72
2023/12/04 07:49:24;;;;;;;28.37;22.27;;;0.70;99.90;;;;;;5068362;28;20194;-72
2023/12/04 07:51:50;;;;;;;28.27;22.67;;;0.80;99.90;;;;;;5069790;28;20042;-72
2023/12/04 07:54:16;;;;;;;27.07;22.50;;;0.70;99.90;;;;;;5069477;28;20051;-73
2023/12/04 07:56:42;;;;;;;26.00;21.97;;;0.70;99.90;;;;;;5068725;28;20063;-71
2023/12/04 07:59:09;;;;;;;29.23;22.10;;;0.70;99.90;;;;;;5066690;28;20472;-72
2023/12/04 08:01:34;;;;;;;27.17;21.83;;;0.70;99.90;;;;;;5082364;28;20044;-72
2023/12/04 08:04:00;;;;;;;25.87;21.80;;;0.70;99.90;;;;;;5088528;28;20047;-72
2023/12/04 08:06:26;;;;;;;27.67;21.97;;;0.70;99.90;;;;;;5063202;28;20113;-72
2023/12/04 08:08:52;;;;;;;26.80;22.17;;;0.70;99.90;;;;;;5080617;28;20040;-70
2023/12/04 08:11:18;;;;;;;26.53;22.37;;;0.60;99.90;;;;;;5080986;28;20048;-71
2023/12/04 08:13:47;;;;;;;27.83;23.03;;;0.70;99.90;;;;;;5072557;28;20432;-71
2023/12/04 08:16:17;;;;;;;26.53;20.83;;;0.70;99.90;;;;;;5069723;28;20401;-74
2023/12/04 08:18:43;;;;;;;26.02;20.83;;;0.70;99.90;;;;;;5087737;28;20040;-71
2023/12/04 08:21:09;;;;;;;25.67;21.33;;;0.70;99.90;;;;;;5082427;28;20491;-71
2023/12/04 08:23:35;;;;;;;27.77;21.47;;;0.80;99.90;;;;;;5063601;28;20047;-73
2023/12/04 08:26:01;;;;;;;26.13;21.20;;;0.80;99.90;;;;;;5067036;28;20135;-72
2023/12/04 08:28:26;;;;;;;27.37;22.13;;;0.80;99.90;;;;;;5079196;28;20181;-72
2023/12/04 08:30:52;;;;;;;24.63;21.33;;;0.80;99.90;;;;;;5079421;28;20091;-72
2023/12/04 08:33:20;;;;;;;27.33;21.30;;;0.80;99.90;;;;;;5080063;28;20518;-72
2023/12/04 08:35:46;;;;;;;24.93;20.70;;;0.80;99.90;;;;;;5068171;28;20047;-72
2023/12/04 08:38:12;;;;;;;27.37;22.53;;;0.80;99.90;;;;;;5082860;28;20048;-72
2023/12/04 08:40:37;;;;;;;23.77;20.37;;;0.80;99.90;;;;;;5068556;28;20050;-72
2023/12/04 08:43:03;;;;;;;24.87;19.87;;;0.80;99.90;;;;;;5066105;28;20055;-72
2023/12/04 08:45:30;;;;;;;25.40;20.13;;;0.80;99.90;;;;;;5062573;28;20046;-72
2023/12/04 08:47:55;;;;;;;23.87;19.43;;;0.80;99.90;;;;;;5083463;28;20490;-72
2023/12/04 08:50:25;;;;;;;25.50;19.83;;;0.80;99.90;;;;;;5081325;28;20042;-76
2023/12/04 08:52:54;;;;;;;24.40;20.13;;;1.00;99.90;;;;;;5064504;28;20122;-76
2023/12/04 08:55:20;;;;;;;26.23;20.37;;;0.80;99.90;;;;;;5081811;28;20040;-76
2023/12/04 08:57:45;;;;;;;22.37;19.00;;;0.90;99.90;;;;;;5081090;28;20048;-76
2023/12/04 09:00:12;;;;;;;23.10;19.37;;;0.80;99.90;;;;;;5062454;28;20092;-76
2023/12/04 09:02:38;;;;;;;23.57;18.80;;;0.80;99.90;;;;;;5067265;28;20044;-75
2023/12/04 09:05:04;;;;;;;22.57;19.43;;;0.90;99.90;;;;;;5079629;28;20387;-76
2023/12/04 09:07:29;;;;;;;21.57;18.63;;;0.90;99.90;;;;;;5060632;28;20451;-76
2023/12/04 09:09:55;;;;;;;22.00;19.00;;;0.90;99.90;;;;;;5088657;28;20039;-76
2023/12/04 09:12:24;;;;;;;21.50;18.50;;;0.90;99.90;;;;;;5076964;28;20044;-77
2023/12/04 09:14:50;;;;;;;22.07;18.53;;;1.00;99.90;;;;;;5066991;28;20055;-76
2023/12/04 09:17:20;;;;;;;20.80;17.08;;;0.90;99.90;;;;;;5071133;28;20083;-77
2023/12/04 09:19:46;;;;;;;20.60;17.63;;;1.00;99.90;;;;;;5082357;28;20036;-76
2023/12/04 09:22:12;;;;;;;21.73;18.47;;;0.90;99.90;;;;;;5081585;28;20039;-76
2023/12/04 09:24:37;;;;;;;20.57;17.77;;;1.00;99.90;;;;;;5082510;28;20035;-76
2023/12/04 09:27:03;;;;;;;19.43;16.63;;;1.00;99.90;;;;;;5080933;28;20445;-78
2023/12/04 09:29:29;;;;;;;19.08;16.95;;;1.00;99.90;;;;;;5084907;28;20483;-73
2023/12/04 09:31:55;;;;;;;21.00;16.60;;;1.00;99.90;;;;;;5081920;28;20063;-73
2023/12/04 09:34:24;;;;;;;20.73;16.53;;;1.00;99.90;;;;;;5066588;28;20043;-73
2023/12/04 09:36:50;;;;;;;18.43;16.20;;;1.10;99.90;;;;;;5063553;28;20133;-73
2023/12/04 09:39:15;;;;;;;19.17;15.30;;;1.10;99.90;;;;;;5080790;28;20105;-77
2023/12/04 09:41:43;;;;;;;19.13;16.50;;;1.10;99.90;;;;;;5079705;28;20489;-77
2023/12/04 09:44:09;;;;;;;19.52;15.48;;;1.10;99.90;;;;;;5080363;28;20058;-78
2023/12/04 09:46:35;;;;;;;19.00;15.80;;;1.10;99.90;;;;;;5073734;28;20049;-78
2023/12/04 09:49:04;;;;;;;18.17;14.93;;;1.10;99.90;;;;;;5082369;28;20052;-78
2023/12/04 09:51:30;;;;;;;16.73;14.88;;;1.10;99.90;;;;;;5062388;28;20125;-78
2023/12/04 09:53:59;;;;;;;17.77;15.87;;;1.20;99.90;;;;;;5063972;28;20153;-77
2023/12/04 09:56:26;;;;;;;;;;;1.20;99.90;;;;;;5067430;28;20044;-78
2023/12/04 09:59:02;;;;;;;17.40;15.25;;;1.20;99.90;;;;;;5063696;28;20393;-78
2023/12/04 10:01:31;;;;;;;17.90;15.38;;;1.20;99.90;;;;;;5091184;28;20042;-78
2023/12/04 10:03:59;;;;;;;19.80;15.50;;;1.20;99.90;;;;;;5090484;28;20044;-77
2023/12/04 10:06:31;;;;;;;17.70;14.32;;;1.40;99.90;;;;;;5087334;28;20394;-77
2023/12/04 10:09:00;;;;;;;17.53;14.50;;;1.30;99.90;;;;;;5083049;28;20054;-78
2023/12/04 10:11:30;;;;;;;18.95;15.77;;;1.30;99.90;;;;;;5087183;28;20043;-78
2023/12/04 10:13:56;;;;;;;17.25;14.95;;;1.30;99.90;;;;;;5079961;28;20044;-77
2023/12/04 10:16:36;;;;;;;17.47;14.53;;;1.40;99.90;;;;;;5059341;28;20133;-77
2023/12/04 10:19:17;;;;;;;16.75;13.70;;;1.40;99.90;;;;;;5080163;28;20047;-78
2023/12/04 10:21:47;;;;;;;17.07;14.67;;;1.40;99.90;;;;;;5059229;28;20401;-78
2023/12/04 10:24:26;;;;;;;16.60;13.85;;;1.30;99.90;;;;;;5078784;28;20048;-78
2023/12/04 10:26:52;;;;;;;16.50;13.80;;;1.40;99.90;;;;;;5082182;28;20040;-78
2023/12/04 10:29:19;;;;;;;15.83;13.83;;;1.40;99.90;;;;;;5066271;28;20119;-78
2023/12/04 10:31:44;;;;;;;17.00;13.77;;;1.50;99.90;;;;;;5078738;28;20048;-78
2023/12/04 10:34:10;;;;;;;16.67;14.33;;;1.40;99.90;;;;;;5080499;28;20036;-78
2023/12/04 10:36:37;;;;;;;16.07;14.10;;;1.40;99.90;;;;;;5080827;28;20123;-78
2023/12/04 10:39:06;;;;;;;15.83;13.60;;;1.40;99.90;;;;;;5065543;28;20066;-78
2023/12/04 10:41:32;;;;;;;15.97;13.90;;;1.40;99.90;;;;;;5065437;28;20476;-73
2023/12/04 10:43:58;;;;;;;15.50;13.40;;;1.40;99.90;;;;;;5062619;28;20123;-73
2023/12/04 10:46:27;;;;;;;15.90;13.30;;;1.40;99.90;;;;;;5066008;28;20499;-73
2023/12/04 10:48:54;;;;;;;16.92;14.13;;;1.40;99.90;;;;;;5063079;28;20142;-77
2023/12/04 10:51:23;;;;;;;15.97;13.70;;;1.40;99.90;;;;;;5062098;28;20049;-78
2023/12/04 10:53:49;;;;;;;15.57;13.57;;;1.40;99.90;;;;;;5074900;28;20036;-78
2023/12/04 10:56:23;;;;;;;15.43;13.18;;;1.50;99.90;;;;;;5085128;28;20097;-78
2023/12/04 10:58:51;;;;;;;13.97;12.50;;;1.50;99.90;;;;;;5066911;28;20055;-73
2023/12/04 11:01:19;;;;;;;15.83;12.97;;;1.50;99.90;;;;;;5064862;28;20169;-73
2023/12/04 11:03:46;;;;;;;15.57;13.20;;;1.50;99.90;;;;;;5080099;28;20527;-80
2023/12/04 11:06:14;;;;;;;14.60;12.40;;;1.50;99.90;;;;;;5080534;28;20044;-78
2023/12/04 11:08:42;;;;;;;15.00;12.57;;;1.50;99.90;;;;;;5094103;28;20032;-78
2023/12/04 11:11:25;;;;;;;14.30;12.43;;;1.50;99.90;;;;;;5066237;28;20070;-78
2023/12/04 11:13:55;;;;;;;14.10;12.33;;;1.60;99.90;;;;;;5069484;28;20109;-78
2023/12/04 11:17:01;;;;;;;13.73;12.23;;;1.60;99.90;;;;;;5084820;28;20093;-78
2023/12/04 11:19:34;;;;;;;14.30;12.80;;;1.60;99.90;;;;;;5031899;28;20087;-78
2023/12/04 11:22:02;;;;;;;13.18;11.68;;;1.60;99.90;;;;;;5079762;28;20540;-77
2023/12/04 11:24:28;;;;;;;14.15;12.68;;;1.60;99.90;;;;;;5068650;28;20048;-77
2023/12/04 11:26:54;;;;;;;14.63;12.38;;;1.60;99.90;;;;;;5084412;28;20051;-78
2023/12/04 11:29:21;;;;;;;13.20;11.27;;;1.60;99.90;;;;;;5087989;28;20047;-77
2023/12/04 11:31:47;;;;;;;13.85;11.95;;;1.60;99.90;;;;;;5074750;28;21026;-77
2023/12/04 11:34:13;;;;;;;14.32;12.23;;;1.60;99.90;;;;;;5079590;28;20134;-77
2023/12/04 11:36:39;;;;;;;15.07;12.00;;;1.60;99.90;;;;;;5085078;28;20123;-78
2023/12/04 11:39:10;;;;;;;13.75;11.43;;;1.60;99.90;;;;;;5082504;28;20093;-78
2023/12/04 11:41:37;;;;;;;13.27;11.90;;;1.70;99.90;;;;;;5065900;28;20106;-78
2023/12/04 11:44:03;;;;;;;14.82;12.30;;;1.70;99.90;;;;;;5088735;28;20727;-78
2023/12/04 11:46:30;;;;;;;14.70;12.07;;;1.70;99.90;;;;;;5064222;28;20040;-78
2023/12/04 11:49:17;;;;;;;13.75;12.25;;;1.70;99.90;;;;;;5082942;28;20138;-78
2023/12/04 11:51:44;;;;;;;14.45;12.20;;;1.70;99.90;;;;;;5076459;28;20379;-78
2023/12/04 11:54:13;;;;;;;13.45;11.98;;;1.70;99.90;;;;;;5083959;28;20638;-78
2023/12/04 11:56:39;;;;;;;13.73;11.50;;;1.90;99.90;;;;;;5083320;28;20035;-78
2023/12/04 11:59:07;;;;;;;14.43;11.60;;;1.80;99.90;;;;;;5088428;28;20402;-78
2023/12/04 12:01:45;;;;;;;13.82;11.60;;;1.80;99.90;;;;;;5068753;28;20079;-78
2023/12/04 12:04:10;;;;;;;13.90;11.88;;;1.80;99.90;;;;;;5082669;28;20047;-78
2023/12/04 12:06:36;;;;;;;12.32;10.85;;;1.80;99.90;;;;;;5079921;28;20036;-78
2023/12/04 12:09:02;;;;;;;12.05;10.85;;;1.80;99.90;;;;;;5069451;28;20109;-78
2023/12/04 12:11:28;;;;;;;13.30;11.88;;;1.90;99.90;;;;;;5078991;28;20147;-77
2023/12/04 12:13:54;;;;;;;13.63;11.65;;;1.90;99.90;;;;;;5066904;28;20161;-78
2023/12/04 12:16:20;;;;;;;13.23;11.38;;;1.90;99.90;;;;;;5088292;28;20052;-78
2023/12/04 12:18:49;;;;;;;13.52;11.63;;;1.90;99.90;;;;;;5088783;28;20047;-78
2023/12/04 12:21:14;;;;;;;12.88;11.57;;;1.90;99.90;;;;;;5067484;28;20044;-77
2023/12/04 12:23:40;;;;;;;12.80;11.38;;;2.00;99.90;;;;;;5099438;28;20551;-77
2023/12/04 12:26:07;;;;;;;12.10;10.40;;;2.00;99.90;;;;;;5076819;28;20044;-78
2023/12/04 12:28:35;;;;;;;12.73;10.95;;;2.00;99.90;;;;;;5079853;28;20056;-78
2023/12/04 12:31:04;;;;;;;12.45;10.57;;;2.10;99.90;;;;;;5076343;28;20054;-77
2023/12/04 12:33:30;;;;;;;11.98;10.63;;;2.10;99.90;;;;;;5066091;28;20040;-78
2023/12/04 12:35:58;;;;;;;12.10;10.63;;;2.00;99.90;;;;;;5085892;28;20122;-77